sensor_id;sensor_type;location;lat;lon;timestamp;P1;durP1;ratioP1;P2;durP2;ratioP2
7707;SDS011;3896;48.758;8.888;2023-05-29T00:00:06;4.73;;;3.50;;
7707;SDS011;3896;48.758;8.888;2023-05-29T00:02:32;4.40;;;3.43;;
7707;SDS011;3896;48.758;8.888;2023-05-29T00:05:01;5.00;;;3.80;;
7707;SDS011;3896;48.758;8.888;2023-05-29T00:07:30;6.63;;;4.13;;
7707;SDS011;3896;48.758;8.888;2023-05-29T00:09:57;5.57;;;3.77;;
7707;SDS011;3896;48.758;8.888;2023-05-29T00:12:23;5.40;;;3.80;;
7707;SDS011;3896;48.758;8.888;2023-05-29T00:14:49;5.07;;;3.43;;
7707;SDS011;3896;48.758;8.888;2023-05-29T00:17:15;8.67;;;4.03;;
7707;SDS011;3896;48.758;8.888;2023-05-29T00:19:41;4.63;;;3.57;;
7707;SDS011;3896;48.758;8.888;2023-05-29T00:22:07;4.73;;;3.33;;
7707;SDS011;3896;48.758;8.888;2023-05-29T00:24:33;4.67;;;3.37;;
7707;SDS011;3896;48.758;8.888;2023-05-29T00:26:59;4.63;;;3.33;;
7707;SDS011;3896;48.758;8.888;2023-05-29T00:29:24;5.83;;;3.63;;
7707;SDS011;3896;48.758;8.888;2023-05-29T00:31:50;5.23;;;3.80;;
7707;SDS011;3896;48.758;8.888;2023-05-29T00:34:18;4.37;;;3.40;;
7707;SDS011;3896;48.758;8.888;2023-05-29T00:36:44;6.57;;;3.93;;
7707;SDS011;3896;48.758;8.888;2023-05-29T00:39:11;8.43;;;4.07;;
7707;SDS011;3896;48.758;8.888;2023-05-29T00:41:37;4.63;;;3.90;;
7707;SDS011;3896;48.758;8.888;2023-05-29T00:44:02;7.80;;;3.80;;
7707;SDS011;3896;48.758;8.888;2023-05-29T00:46:28;5.30;;;3.50;;
7707;SDS011;3896;48.758;8.888;2023-05-29T00:48:56;6.83;;;4.20;;
7707;SDS011;3896;48.758;8.888;2023-05-29T00:51:23;6.60;;;4.07;;
7707;SDS011;3896;48.758;8.888;2023-05-29T00:53:50;5.57;;;4.00;;
7707;SDS011;3896;48.758;8.888;2023-05-29T00:56:17;4.93;;;3.67;;
7707;SDS011;3896;48.758;8.888;2023-05-29T00:58:43;5.07;;;3.60;;
7707;SDS011;3896;48.758;8.888;2023-05-29T01:01:09;4.30;;;3.87;;
7707;SDS011;3896;48.758;8.888;2023-05-29T01:03:36;5.47;;;3.73;;
7707;SDS011;3896;48.758;8.888;2023-05-29T01:06:01;6.17;;;3.70;;
7707;SDS011;3896;48.758;8.888;2023-05-29T01:08:28;6.20;;;3.57;;
7707;SDS011;3896;48.758;8.888;2023-05-29T01:10:55;7.13;;;4.23;;
7707;SDS011;3896;48.758;8.888;2023-05-29T01:13:38;4.60;;;3.97;;
7707;SDS011;3896;48.758;8.888;2023-05-29T01:16:08;5.50;;;3.87;;
7707;SDS011;3896;48.758;8.888;2023-05-29T01:18:46;4.73;;;3.67;;
7707;SDS011;3896;48.758;8.888;2023-05-29T01:21:26;5.27;;;4.03;;
7707;SDS011;3896;48.758;8.888;2023-05-29T01:23:55;5.47;;;3.90;;
7707;SDS011;3896;48.758;8.888;2023-05-29T01:29:23;5.40;;;3.93;;
7707;SDS011;3896;48.758;8.888;2023-05-29T01:31:51;6.33;;;3.77;;
7707;SDS011;3896;48.758;8.888;2023-05-29T01:34:18;5.67;;;3.77;;
7707;SDS011;3896;48.758;8.888;2023-05-29T01:36:44;3.83;;;3.40;;
7707;SDS011;3896;48.758;8.888;2023-05-29T01:39:11;6.67;;;4.07;;
7707;SDS011;3896;48.758;8.888;2023-05-29T01:41:38;6.50;;;4.07;;
7707;SDS011;3896;48.758;8.888;2023-05-29T01:44:06;5.00;;;3.63;;
7707;SDS011;3896;48.758;8.888;2023-05-29T01:46:36;5.63;;;4.00;;
7707;SDS011;3896;48.758;8.888;2023-05-29T01:49:03;4.80;;;4.03;;
7707;SDS011;3896;48.758;8.888;2023-05-29T01:51:29;7.83;;;3.67;;
7707;SDS011;3896;48.758;8.888;2023-05-29T01:53:56;5.37;;;3.73;;
7707;SDS011;3896;48.758;8.888;2023-05-29T01:56:23;5.40;;;3.60;;
7707;SDS011;3896;48.758;8.888;2023-05-29T01:58:52;6.77;;;4.10;;
7707;SDS011;3896;48.758;8.888;2023-05-29T02:01:19;6.47;;;4.57;;
7707;SDS011;3896;48.758;8.888;2023-05-29T02:03:46;6.00;;;3.70;;
7707;SDS011;3896;48.758;8.888;2023-05-29T02:06:11;5.03;;;3.53;;
7707;SDS011;3896;48.758;8.888;2023-05-29T02:08:37;5.63;;;4.57;;
7707;SDS011;3896;48.758;8.888;2023-05-29T02:11:02;5.83;;;3.70;;
7707;SDS011;3896;48.758;8.888;2023-05-29T02:13:28;5.87;;;3.70;;
7707;SDS011;3896;48.758;8.888;2023-05-29T02:15:54;6.10;;;4.10;;
7707;SDS011;3896;48.758;8.888;2023-05-29T02:18:19;6.40;;;4.23;;
7707;SDS011;3896;48.758;8.888;2023-05-29T02:20:45;5.73;;;4.30;;
7707;SDS011;3896;48.758;8.888;2023-05-29T02:23:11;5.40;;;3.57;;
7707;SDS011;3896;48.758;8.888;2023-05-29T02:25:37;8.03;;;4.70;;
7707;SDS011;3896;48.758;8.888;2023-05-29T02:28:03;6.27;;;3.80;;
7707;SDS011;3896;48.758;8.888;2023-05-29T02:30:29;4.83;;;3.90;;
7707;SDS011;3896;48.758;8.888;2023-05-29T02:32:55;6.67;;;4.00;;
7707;SDS011;3896;48.758;8.888;2023-05-29T02:35:21;5.23;;;3.87;;
7707;SDS011;3896;48.758;8.888;2023-05-29T02:37:48;6.40;;;3.40;;
7707;SDS011;3896;48.758;8.888;2023-05-29T02:40:14;5.07;;;3.93;;
7707;SDS011;3896;48.758;8.888;2023-05-29T02:42:40;6.83;;;3.77;;
7707;SDS011;3896;48.758;8.888;2023-05-29T02:45:05;10.47;;;4.20;;
7707;SDS011;3896;48.758;8.888;2023-05-29T02:47:31;5.80;;;3.37;;
7707;SDS011;3896;48.758;8.888;2023-05-29T02:49:57;4.30;;;3.50;;
7707;SDS011;3896;48.758;8.888;2023-05-29T02:52:22;3.70;;;3.40;;
7707;SDS011;3896;48.758;8.888;2023-05-29T02:54:48;5.43;;;3.40;;
7707;SDS011;3896;48.758;8.888;2023-05-29T02:57:14;7.20;;;3.60;;
7707;SDS011;3896;48.758;8.888;2023-05-29T02:59:40;5.53;;;4.13;;
7707;SDS011;3896;48.758;8.888;2023-05-29T03:02:06;6.20;;;3.67;;
7707;SDS011;3896;48.758;8.888;2023-05-29T03:04:31;5.03;;;3.90;;
7707;SDS011;3896;48.758;8.888;2023-05-29T03:06:57;7.03;;;4.00;;
7707;SDS011;3896;48.758;8.888;2023-05-29T03:09:23;4.67;;;3.30;;
7707;SDS011;3896;48.758;8.888;2023-05-29T03:11:48;6.53;;;3.80;;
7707;SDS011;3896;48.758;8.888;2023-05-29T03:14:15;5.50;;;3.10;;
7707;SDS011;3896;48.758;8.888;2023-05-29T03:16:41;6.23;;;4.23;;
7707;SDS011;3896;48.758;8.888;2023-05-29T03:19:08;6.80;;;3.60;;
7707;SDS011;3896;48.758;8.888;2023-05-29T03:21:33;5.23;;;3.20;;
7707;SDS011;3896;48.758;8.888;2023-05-29T03:24:00;3.73;;;3.33;;
7707;SDS011;3896;48.758;8.888;2023-05-29T03:26:27;4.70;;;3.23;;
7707;SDS011;3896;48.758;8.888;2023-05-29T03:28:53;5.40;;;3.70;;
7707;SDS011;3896;48.758;8.888;2023-05-29T03:31:19;4.07;;;3.53;;
7707;SDS011;3896;48.758;8.888;2023-05-29T03:33:44;6.83;;;3.83;;
7707;SDS011;3896;48.758;8.888;2023-05-29T03:36:10;6.10;;;3.10;;
7707;SDS011;3896;48.758;8.888;2023-05-29T03:38:36;4.60;;;3.73;;
7707;SDS011;3896;48.758;8.888;2023-05-29T03:41:02;4.03;;;2.60;;
7707;SDS011;3896;48.758;8.888;2023-05-29T03:43:27;5.37;;;3.43;;
7707;SDS011;3896;48.758;8.888;2023-05-29T03:45:53;5.73;;;3.70;;
7707;SDS011;3896;48.758;8.888;2023-05-29T03:48:18;5.77;;;3.43;;
7707;SDS011;3896;48.758;8.888;2023-05-29T03:50:45;5.73;;;3.47;;
7707;SDS011;3896;48.758;8.888;2023-05-29T03:53:11;5.20;;;3.40;;
7707;SDS011;3896;48.758;8.888;2023-05-29T03:55:36;7.03;;;3.60;;
7707;SDS011;3896;48.758;8.888;2023-05-29T03:58:02;4.57;;;3.13;;
7707;SDS011;3896;48.758;8.888;2023-05-29T04:00:28;6.60;;;3.53;;
7707;SDS011;3896;48.758;8.888;2023-05-29T04:02:54;5.80;;;3.33;;
7707;SDS011;3896;48.758;8.888;2023-05-29T04:05:20;3.50;;;2.80;;
7707;SDS011;3896;48.758;8.888;2023-05-29T04:07:45;8.33;;;3.60;;
7707;SDS011;3896;48.758;8.888;2023-05-29T04:10:11;3.43;;;3.13;;
7707;SDS011;3896;48.758;8.888;2023-05-29T04:12:36;3.80;;;2.97;;
7707;SDS011;3896;48.758;8.888;2023-05-29T04:15:02;7.40;;;3.63;;
7707;SDS011;3896;48.758;8.888;2023-05-29T04:17:29;5.63;;;3.80;;
7707;SDS011;3896;48.758;8.888;2023-05-29T04:19:54;5.27;;;3.40;;
7707;SDS011;3896;48.758;8.888;2023-05-29T04:22:20;4.37;;;3.27;;
7707;SDS011;3896;48.758;8.888;2023-05-29T04:24:46;5.90;;;3.90;;
7707;SDS011;3896;48.758;8.888;2023-05-29T04:27:11;9.93;;;3.70;;
7707;SDS011;3896;48.758;8.888;2023-05-29T04:29:41;6.27;;;4.20;;
7707;SDS011;3896;48.758;8.888;2023-05-29T04:32:07;3.60;;;2.90;;
7707;SDS011;3896;48.758;8.888;2023-05-29T04:34:36;4.80;;;3.03;;
7707;SDS011;3896;48.758;8.888;2023-05-29T04:37:05;7.13;;;3.63;;
7707;SDS011;3896;48.758;8.888;2023-05-29T04:39:31;4.80;;;3.87;;
7707;SDS011;3896;48.758;8.888;2023-05-29T04:41:57;5.03;;;3.23;;
7707;SDS011;3896;48.758;8.888;2023-05-29T04:44:23;5.67;;;3.17;;
7707;SDS011;3896;48.758;8.888;2023-05-29T04:46:54;5.17;;;3.80;;
7707;SDS011;3896;48.758;8.888;2023-05-29T04:49:21;8.63;;;4.10;;
7707;SDS011;3896;48.758;8.888;2023-05-29T04:51:47;5.73;;;3.53;;
7707;SDS011;3896;48.758;8.888;2023-05-29T04:54:12;5.60;;;3.73;;
7707;SDS011;3896;48.758;8.888;2023-05-29T04:56:38;6.10;;;3.80;;
7707;SDS011;3896;48.758;8.888;2023-05-29T04:59:07;8.47;;;4.63;;
7707;SDS011;3896;48.758;8.888;2023-05-29T05:01:32;7.30;;;3.80;;
7707;SDS011;3896;48.758;8.888;2023-05-29T05:03:59;6.33;;;4.10;;
7707;SDS011;3896;48.758;8.888;2023-05-29T05:06:25;8.23;;;5.07;;
7707;SDS011;3896;48.758;8.888;2023-05-29T05:08:50;5.53;;;4.00;;
7707;SDS011;3896;48.758;8.888;2023-05-29T05:11:17;7.40;;;4.60;;
7707;SDS011;3896;48.758;8.888;2023-05-29T05:13:43;7.57;;;4.27;;
7707;SDS011;3896;48.758;8.888;2023-05-29T05:16:09;7.40;;;4.13;;
7707;SDS011;3896;48.758;8.888;2023-05-29T05:18:35;7.60;;;4.13;;
7707;SDS011;3896;48.758;8.888;2023-05-29T05:21:01;7.20;;;4.00;;
7707;SDS011;3896;48.758;8.888;2023-05-29T05:23:28;4.47;;;3.80;;
7707;SDS011;3896;48.758;8.888;2023-05-29T05:25:55;6.80;;;4.53;;
7707;SDS011;3896;48.758;8.888;2023-05-29T05:28:20;6.60;;;5.07;;
7707;SDS011;3896;48.758;8.888;2023-05-29T05:30:46;5.80;;;3.97;;
7707;SDS011;3896;48.758;8.888;2023-05-29T05:33:12;8.40;;;4.70;;
7707;SDS011;3896;48.758;8.888;2023-05-29T05:35:37;6.80;;;4.20;;
7707;SDS011;3896;48.758;8.888;2023-05-29T05:38:03;6.70;;;4.53;;
7707;SDS011;3896;48.758;8.888;2023-05-29T05:40:29;6.53;;;4.63;;
7707;SDS011;3896;48.758;8.888;2023-05-29T05:42:54;7.70;;;3.77;;
7707;SDS011;3896;48.758;8.888;2023-05-29T05:45:20;6.50;;;4.37;;
7707;SDS011;3896;48.758;8.888;2023-05-29T05:47:46;7.00;;;4.13;;
7707;SDS011;3896;48.758;8.888;2023-05-29T05:50:11;6.83;;;4.00;;
7707;SDS011;3896;48.758;8.888;2023-05-29T05:52:37;9.67;;;4.37;;
7707;SDS011;3896;48.758;8.888;2023-05-29T05:55:03;5.97;;;4.07;;
7707;SDS011;3896;48.758;8.888;2023-05-29T05:57:29;6.00;;;4.00;;
7707;SDS011;3896;48.758;8.888;2023-05-29T05:59:57;5.43;;;4.07;;
7707;SDS011;3896;48.758;8.888;2023-05-29T06:02:23;7.80;;;4.17;;
7707;SDS011;3896;48.758;8.888;2023-05-29T06:04:48;6.63;;;4.13;;
7707;SDS011;3896;48.758;8.888;2023-05-29T06:07:15;8.40;;;4.33;;
7707;SDS011;3896;48.758;8.888;2023-05-29T06:09:40;6.57;;;3.93;;
7707;SDS011;3896;48.758;8.888;2023-05-29T06:12:06;5.53;;;3.83;;
7707;SDS011;3896;48.758;8.888;2023-05-29T06:14:33;6.70;;;4.13;;
7707;SDS011;3896;48.758;8.888;2023-05-29T06:16:59;6.57;;;4.33;;
7707;SDS011;3896;48.758;8.888;2023-05-29T06:19:25;8.33;;;4.37;;
7707;SDS011;3896;48.758;8.888;2023-05-29T06:21:51;6.32;;;4.13;;
7707;SDS011;3896;48.758;8.888;2023-05-29T06:24:16;7.40;;;3.77;;
7707;SDS011;3896;48.758;8.888;2023-05-29T06:26:42;6.77;;;4.60;;
7707;SDS011;3896;48.758;8.888;2023-05-29T06:29:07;4.83;;;3.57;;
7707;SDS011;3896;48.758;8.888;2023-05-29T06:31:33;6.37;;;3.63;;
7707;SDS011;3896;48.758;8.888;2023-05-29T06:33:58;7.50;;;4.33;;
7707;SDS011;3896;48.758;8.888;2023-05-29T06:36:24;7.77;;;3.93;;
7707;SDS011;3896;48.758;8.888;2023-05-29T06:38:50;7.13;;;4.30;;
7707;SDS011;3896;48.758;8.888;2023-05-29T06:41:16;6.23;;;3.13;;
7707;SDS011;3896;48.758;8.888;2023-05-29T06:43:42;7.00;;;3.53;;
7707;SDS011;3896;48.758;8.888;2023-05-29T06:46:08;5.10;;;3.67;;
7707;SDS011;3896;48.758;8.888;2023-05-29T06:48:34;6.83;;;3.90;;
7707;SDS011;3896;48.758;8.888;2023-05-29T06:51:00;4.90;;;3.83;;
7707;SDS011;3896;48.758;8.888;2023-05-29T06:53:26;4.13;;;3.33;;
7707;SDS011;3896;48.758;8.888;2023-05-29T06:55:52;5.03;;;3.17;;
7707;SDS011;3896;48.758;8.888;2023-05-29T06:58:18;5.63;;;3.80;;
7707;SDS011;3896;48.758;8.888;2023-05-29T07:00:43;6.60;;;3.33;;
7707;SDS011;3896;48.758;8.888;2023-05-29T07:03:09;4.90;;;3.20;;
7707;SDS011;3896;48.758;8.888;2023-05-29T07:05:35;6.40;;;3.20;;
7707;SDS011;3896;48.758;8.888;2023-05-29T07:08:00;5.83;;;3.37;;
7707;SDS011;3896;48.758;8.888;2023-05-29T07:10:26;5.47;;;3.40;;
7707;SDS011;3896;48.758;8.888;2023-05-29T07:12:51;5.87;;;3.03;;
7707;SDS011;3896;48.758;8.888;2023-05-29T07:15:17;4.07;;;3.67;;
7707;SDS011;3896;48.758;8.888;2023-05-29T07:17:43;6.07;;;4.00;;
7707;SDS011;3896;48.758;8.888;2023-05-29T07:20:08;4.07;;;3.03;;
7707;SDS011;3896;48.758;8.888;2023-05-29T07:22:34;4.53;;;3.07;;
7707;SDS011;3896;48.758;8.888;2023-05-29T07:25:00;5.10;;;3.53;;
7707;SDS011;3896;48.758;8.888;2023-05-29T07:27:26;4.47;;;2.63;;
7707;SDS011;3896;48.758;8.888;2023-05-29T07:29:52;7.13;;;3.00;;
7707;SDS011;3896;48.758;8.888;2023-05-29T07:32:18;3.77;;;2.77;;
7707;SDS011;3896;48.758;8.888;2023-05-29T07:34:43;5.97;;;3.37;;
7707;SDS011;3896;48.758;8.888;2023-05-29T07:37:09;4.20;;;3.40;;
7707;SDS011;3896;48.758;8.888;2023-05-29T07:39:36;6.37;;;3.43;;
7707;SDS011;3896;48.758;8.888;2023-05-29T07:42:01;4.77;;;3.37;;
7707;SDS011;3896;48.758;8.888;2023-05-29T07:44:27;4.57;;;3.20;;
7707;SDS011;3896;48.758;8.888;2023-05-29T07:46:53;5.93;;;3.20;;
7707;SDS011;3896;48.758;8.888;2023-05-29T07:49:22;5.30;;;3.33;;
7707;SDS011;3896;48.758;8.888;2023-05-29T07:51:47;5.20;;;3.20;;
7707;SDS011;3896;48.758;8.888;2023-05-29T07:54:13;7.37;;;4.00;;
7707;SDS011;3896;48.758;8.888;2023-05-29T07:56:42;4.63;;;3.00;;
7707;SDS011;3896;48.758;8.888;2023-05-29T07:59:08;4.90;;;3.10;;
7707;SDS011;3896;48.758;8.888;2023-05-29T08:01:36;4.37;;;3.07;;
7707;SDS011;3896;48.758;8.888;2023-05-29T08:04:03;5.80;;;3.30;;
7707;SDS011;3896;48.758;8.888;2023-05-29T08:06:28;5.50;;;2.80;;
7707;SDS011;3896;48.758;8.888;2023-05-29T08:08:57;7.47;;;3.67;;
7707;SDS011;3896;48.758;8.888;2023-05-29T08:11:23;9.33;;;3.47;;
7707;SDS011;3896;48.758;8.888;2023-05-29T08:13:48;5.27;;;2.97;;
7707;SDS011;3896;48.758;8.888;2023-05-29T08:16:14;6.73;;;3.13;;
7707;SDS011;3896;48.758;8.888;2023-05-29T08:18:41;8.83;;;3.87;;
7707;SDS011;3896;48.758;8.888;2023-05-29T08:21:07;3.50;;;3.20;;
7707;SDS011;3896;48.758;8.888;2023-05-29T08:23:34;4.23;;;3.07;;
7707;SDS011;3896;48.758;8.888;2023-05-29T08:26:00;4.90;;;3.73;;
7707;SDS011;3896;48.758;8.888;2023-05-29T08:28:27;5.17;;;3.13;;
7707;SDS011;3896;48.758;8.888;2023-05-29T08:30:53;6.10;;;3.53;;
7707;SDS011;3896;48.758;8.888;2023-05-29T08:33:18;5.60;;;3.70;;
7707;SDS011;3896;48.758;8.888;2023-05-29T08:35:44;4.80;;;3.10;;
7707;SDS011;3896;48.758;8.888;2023-05-29T08:38:09;7.07;;;3.87;;
7707;SDS011;3896;48.758;8.888;2023-05-29T08:40:35;4.47;;;3.10;;
7707;SDS011;3896;48.758;8.888;2023-05-29T08:45:32;4.90;;;3.77;;
7707;SDS011;3896;48.758;8.888;2023-05-29T08:48:00;5.93;;;3.50;;
7707;SDS011;3896;48.758;8.888;2023-05-29T08:50:27;5.73;;;3.27;;
7707;SDS011;3896;48.758;8.888;2023-05-29T08:52:53;7.50;;;3.67;;
7707;SDS011;3896;48.758;8.888;2023-05-29T08:55:18;3.93;;;3.20;;
7707;SDS011;3896;48.758;8.888;2023-05-29T08:57:44;6.00;;;3.70;;
7707;SDS011;3896;48.758;8.888;2023-05-29T09:00:13;6.43;;;3.33;;
7707;SDS011;3896;48.758;8.888;2023-05-29T09:02:45;6.13;;;3.47;;
7707;SDS011;3896;48.758;8.888;2023-05-29T09:05:13;4.90;;;3.50;;
7707;SDS011;3896;48.758;8.888;2023-05-29T09:07:39;5.27;;;3.50;;
7707;SDS011;3896;48.758;8.888;2023-05-29T09:10:06;4.90;;;3.23;;
7707;SDS011;3896;48.758;8.888;2023-05-29T09:12:33;6.13;;;3.80;;
7707;SDS011;3896;48.758;8.888;2023-05-29T09:15:00;5.83;;;3.93;;
7707;SDS011;3896;48.758;8.888;2023-05-29T09:17:30;4.63;;;3.63;;
7707;SDS011;3896;48.758;8.888;2023-05-29T09:19:57;6.67;;;3.97;;
7707;SDS011;3896;48.758;8.888;2023-05-29T09:22:23;3.70;;;3.37;;
7707;SDS011;3896;48.758;8.888;2023-05-29T09:24:49;5.33;;;3.53;;
7707;SDS011;3896;48.758;8.888;2023-05-29T09:27:15;6.53;;;3.77;;
7707;SDS011;3896;48.758;8.888;2023-05-29T09:29:42;7.93;;;3.43;;
7707;SDS011;3896;48.758;8.888;2023-05-29T09:32:10;7.70;;;3.63;;
7707;SDS011;3896;48.758;8.888;2023-05-29T09:34:41;5.03;;;3.27;;
7707;SDS011;3896;48.758;8.888;2023-05-29T09:37:07;4.90;;;3.47;;
7707;SDS011;3896;48.758;8.888;2023-05-29T09:39:56;5.57;;;3.30;;
7707;SDS011;3896;48.758;8.888;2023-05-29T09:42:22;4.83;;;3.53;;
7707;SDS011;3896;48.758;8.888;2023-05-29T09:44:48;5.77;;;4.13;;
7707;SDS011;3896;48.758;8.888;2023-05-29T09:47:18;7.20;;;3.30;;
7707;SDS011;3896;48.758;8.888;2023-05-29T09:49:44;4.13;;;3.60;;
7707;SDS011;3896;48.758;8.888;2023-05-29T09:52:11;4.90;;;3.53;;
7707;SDS011;3896;48.758;8.888;2023-05-29T09:54:43;5.23;;;3.43;;
7707;SDS011;3896;48.758;8.888;2023-05-29T09:57:12;4.87;;;3.50;;
7707;SDS011;3896;48.758;8.888;2023-05-29T09:59:45;5.33;;;3.83;;
7707;SDS011;3896;48.758;8.888;2023-05-29T10:02:16;5.63;;;3.43;;
7707;SDS011;3896;48.758;8.888;2023-05-29T10:04:42;4.57;;;3.20;;
7707;SDS011;3896;48.758;8.888;2023-05-29T10:07:27;3.97;;;3.20;;
7707;SDS011;3896;48.758;8.888;2023-05-29T10:10:00;3.57;;;3.20;;
7707;SDS011;3896;48.758;8.888;2023-05-29T10:12:28;5.07;;;3.50;;
7707;SDS011;3896;48.758;8.888;2023-05-29T10:14:56;5.47;;;3.30;;
7707;SDS011;3896;48.758;8.888;2023-05-29T10:17:25;4.97;;;3.50;;
7707;SDS011;3896;48.758;8.888;2023-05-29T10:19:54;5.87;;;3.43;;
7707;SDS011;3896;48.758;8.888;2023-05-29T10:22:23;3.43;;;3.07;;
7707;SDS011;3896;48.758;8.888;2023-05-29T10:24:51;5.40;;;3.17;;
7707;SDS011;3896;48.758;8.888;2023-05-29T10:27:18;7.57;;;3.63;;
7707;SDS011;3896;48.758;8.888;2023-05-29T10:30:02;6.70;;;3.77;;
7707;SDS011;3896;48.758;8.888;2023-05-29T10:32:43;7.57;;;3.40;;
7707;SDS011;3896;48.758;8.888;2023-05-29T10:35:27;6.13;;;4.00;;
7707;SDS011;3896;48.758;8.888;2023-05-29T10:38:02;5.10;;;3.67;;
7707;SDS011;3896;48.758;8.888;2023-05-29T10:40:40;5.27;;;3.57;;
7707;SDS011;3896;48.758;8.888;2023-05-29T10:43:06;5.33;;;3.50;;
7707;SDS011;3896;48.758;8.888;2023-05-29T10:50:42;3.87;;;3.13;;
7707;SDS011;3896;48.758;8.888;2023-05-29T10:53:18;5.37;;;3.40;;
7707;SDS011;3896;48.758;8.888;2023-05-29T10:55:51;4.37;;;3.00;;
7707;SDS011;3896;48.758;8.888;2023-05-29T10:58:24;6.97;;;3.80;;
7707;SDS011;3896;48.758;8.888;2023-05-29T11:00:50;4.50;;;3.00;;
7707;SDS011;3896;48.758;8.888;2023-05-29T11:03:22;4.40;;;2.83;;
7707;SDS011;3896;48.758;8.888;2023-05-29T11:06:02;4.22;;;2.80;;
7707;SDS011;3896;48.758;8.888;2023-05-29T11:08:32;2.90;;;2.60;;
7707;SDS011;3896;48.758;8.888;2023-05-29T11:10:59;5.28;;;3.92;;
7707;SDS011;3896;48.758;8.888;2023-05-29T11:13:37;5.38;;;3.10;;
7707;SDS011;3896;48.758;8.888;2023-05-29T11:19:05;3.85;;;2.90;;
7707;SDS011;3896;48.758;8.888;2023-05-29T11:24:28;4.38;;;3.13;;
7707;SDS011;3896;48.758;8.888;2023-05-29T11:26:56;5.40;;;3.10;;
7707;SDS011;3896;48.758;8.888;2023-05-29T11:29:26;4.63;;;2.70;;
7707;SDS011;3896;48.758;8.888;2023-05-29T11:31:56;4.95;;;3.00;;
7707;SDS011;3896;48.758;8.888;2023-05-29T11:34:27;4.05;;;2.72;;
7707;SDS011;3896;48.758;8.888;2023-05-29T11:36:56;5.65;;;3.10;;
7707;SDS011;3896;48.758;8.888;2023-05-29T11:39:23;4.53;;;3.63;;
7707;SDS011;3896;48.758;8.888;2023-05-29T11:41:52;4.40;;;2.85;;
7707;SDS011;3896;48.758;8.888;2023-05-29T11:44:19;3.25;;;2.80;;
7707;SDS011;3896;48.758;8.888;2023-05-29T11:46:45;4.35;;;2.72;;
7707;SDS011;3896;48.758;8.888;2023-05-29T11:49:11;3.10;;;2.85;;
7707;SDS011;3896;48.758;8.888;2023-05-29T11:51:36;4.60;;;2.75;;
7707;SDS011;3896;48.758;8.888;2023-05-29T11:54:02;6.05;;;2.72;;
7707;SDS011;3896;48.758;8.888;2023-05-29T11:56:29;3.67;;;2.90;;
7707;SDS011;3896;48.758;8.888;2023-05-29T11:58:55;4.78;;;2.55;;
7707;SDS011;3896;48.758;8.888;2023-05-29T12:01:24;4.15;;;2.72;;
7707;SDS011;3896;48.758;8.888;2023-05-29T12:03:51;3.20;;;2.90;;
7707;SDS011;3896;48.758;8.888;2023-05-29T12:06:33;2.65;;;2.45;;
7707;SDS011;3896;48.758;8.888;2023-05-29T12:09:02;3.60;;;3.08;;
7707;SDS011;3896;48.758;8.888;2023-05-29T12:11:29;2.67;;;2.47;;
7707;SDS011;3896;48.758;8.888;2023-05-29T12:13:58;3.22;;;2.42;;
7707;SDS011;3896;48.758;8.888;2023-05-29T12:16:25;4.40;;;2.83;;
7707;SDS011;3896;48.758;8.888;2023-05-29T12:18:55;5.82;;;2.95;;
7707;SDS011;3896;48.758;8.888;2023-05-29T12:21:21;3.30;;;2.97;;
7707;SDS011;3896;48.758;8.888;2023-05-29T12:23:47;2.45;;;2.22;;
7707;SDS011;3896;48.758;8.888;2023-05-29T12:26:13;2.58;;;2.38;;
7707;SDS011;3896;48.758;8.888;2023-05-29T12:28:44;3.85;;;2.78;;
7707;SDS011;3896;48.758;8.888;2023-05-29T12:31:10;4.70;;;2.88;;
7707;SDS011;3896;48.758;8.888;2023-05-29T12:33:40;5.20;;;2.70;;
7707;SDS011;3896;48.758;8.888;2023-05-29T12:36:08;3.80;;;2.90;;
7707;SDS011;3896;48.758;8.888;2023-05-29T12:38:46;3.65;;;2.55;;
7707;SDS011;3896;48.758;8.888;2023-05-29T12:41:25;3.15;;;2.72;;
7707;SDS011;3896;48.758;8.888;2023-05-29T12:43:55;3.58;;;2.60;;
7707;SDS011;3896;48.758;8.888;2023-05-29T12:46:25;4.10;;;2.92;;
7707;SDS011;3896;48.758;8.888;2023-05-29T12:48:55;3.53;;;2.65;;
7707;SDS011;3896;48.758;8.888;2023-05-29T12:51:22;2.58;;;2.28;;
7707;SDS011;3896;48.758;8.888;2023-05-29T12:53:48;2.97;;;2.42;;
7707;SDS011;3896;48.758;8.888;2023-05-29T12:56:14;6.30;;;2.80;;
7707;SDS011;3896;48.758;8.888;2023-05-29T12:58:40;3.40;;;2.65;;
7707;SDS011;3896;48.758;8.888;2023-05-29T13:01:05;2.90;;;2.65;;
7707;SDS011;3896;48.758;8.888;2023-05-29T13:03:38;4.75;;;2.78;;
7707;SDS011;3896;48.758;8.888;2023-05-29T13:06:04;3.47;;;2.70;;
7707;SDS011;3896;48.758;8.888;2023-05-29T13:08:30;4.18;;;2.63;;
7707;SDS011;3896;48.758;8.888;2023-05-29T13:10:56;3.90;;;2.58;;
7707;SDS011;3896;48.758;8.888;2023-05-29T13:13:21;4.47;;;2.55;;
7707;SDS011;3896;48.758;8.888;2023-05-29T13:15:47;3.42;;;2.50;;
7707;SDS011;3896;48.758;8.888;2023-05-29T13:18:13;2.97;;;2.40;;
7707;SDS011;3896;48.758;8.888;2023-05-29T13:20:38;3.60;;;2.65;;
7707;SDS011;3896;48.758;8.888;2023-05-29T13:23:05;4.22;;;2.40;;
7707;SDS011;3896;48.758;8.888;2023-05-29T13:25:32;3.88;;;2.50;;
7707;SDS011;3896;48.758;8.888;2023-05-29T13:27:57;3.13;;;2.58;;
7707;SDS011;3896;48.758;8.888;2023-05-29T13:30:23;5.80;;;2.95;;
7707;SDS011;3896;48.758;8.888;2023-05-29T13:32:49;3.92;;;2.72;;
7707;SDS011;3896;48.758;8.888;2023-05-29T13:35:16;2.97;;;2.67;;
7707;SDS011;3896;48.758;8.888;2023-05-29T13:37:41;3.05;;;2.72;;
7707;SDS011;3896;48.758;8.888;2023-05-29T13:40:09;5.65;;;2.63;;
7707;SDS011;3896;48.758;8.888;2023-05-29T13:42:35;4.40;;;2.90;;
7707;SDS011;3896;48.758;8.888;2023-05-29T13:45:01;2.83;;;2.38;;
7707;SDS011;3896;48.758;8.888;2023-05-29T13:47:27;2.78;;;2.40;;
7707;SDS011;3896;48.758;8.888;2023-05-29T13:49:56;6.15;;;2.60;;
7707;SDS011;3896;48.758;8.888;2023-05-29T13:52:21;3.90;;;2.35;;
7707;SDS011;3896;48.758;8.888;2023-05-29T13:54:47;2.63;;;2.42;;
7707;SDS011;3896;48.758;8.888;2023-05-29T13:57:12;3.83;;;2.65;;
7707;SDS011;3896;48.758;8.888;2023-05-29T13:59:38;2.95;;;2.25;;
7707;SDS011;3896;48.758;8.888;2023-05-29T14:02:03;3.63;;;2.30;;
7707;SDS011;3896;48.758;8.888;2023-05-29T14:04:30;2.85;;;2.30;;
7707;SDS011;3896;48.758;8.888;2023-05-29T14:06:56;3.85;;;2.97;;
7707;SDS011;3896;48.758;8.888;2023-05-29T14:09:22;3.58;;;2.55;;
7707;SDS011;3896;48.758;8.888;2023-05-29T14:11:55;3.85;;;2.67;;
7707;SDS011;3896;48.758;8.888;2023-05-29T14:14:22;4.57;;;2.85;;
7707;SDS011;3896;48.758;8.888;2023-05-29T14:16:48;2.70;;;2.47;;
7707;SDS011;3896;48.758;8.888;2023-05-29T14:19:14;2.60;;;2.40;;
7707;SDS011;3896;48.758;8.888;2023-05-29T14:21:40;5.32;;;2.75;;
7707;SDS011;3896;48.758;8.888;2023-05-29T14:24:06;3.70;;;2.63;;
7707;SDS011;3896;48.758;8.888;2023-05-29T14:26:32;2.80;;;2.28;;
7707;SDS011;3896;48.758;8.888;2023-05-29T14:28:58;2.67;;;2.45;;
7707;SDS011;3896;48.758;8.888;2023-05-29T14:31:23;2.75;;;2.50;;
7707;SDS011;3896;48.758;8.888;2023-05-29T14:33:49;3.13;;;2.58;;
7707;SDS011;3896;48.758;8.888;2023-05-29T14:36:14;3.45;;;2.78;;
7707;SDS011;3896;48.758;8.888;2023-05-29T14:38:40;2.80;;;2.53;;
7707;SDS011;3896;48.758;8.888;2023-05-29T14:41:07;5.22;;;3.15;;
7707;SDS011;3896;48.758;8.888;2023-05-29T14:43:33;3.10;;;2.80;;
7707;SDS011;3896;48.758;8.888;2023-05-29T14:45:58;2.72;;;2.20;;
7707;SDS011;3896;48.758;8.888;2023-05-29T14:48:24;2.83;;;2.50;;
7707;SDS011;3896;48.758;8.888;2023-05-29T14:50:49;2.78;;;2.58;;
7707;SDS011;3896;48.758;8.888;2023-05-29T14:53:15;3.58;;;2.47;;
7707;SDS011;3896;48.758;8.888;2023-05-29T14:55:40;3.72;;;2.80;;
7707;SDS011;3896;48.758;8.888;2023-05-29T14:58:06;2.45;;;2.13;;
7707;SDS011;3896;48.758;8.888;2023-05-29T15:00:31;3.17;;;2.42;;
7707;SDS011;3896;48.758;8.888;2023-05-29T15:02:57;2.60;;;2.40;;
7707;SDS011;3896;48.758;8.888;2023-05-29T15:05:27;2.80;;;2.40;;
7707;SDS011;3896;48.758;8.888;2023-05-29T15:07:53;2.40;;;2.20;;
7707;SDS011;3896;48.758;8.888;2023-05-29T15:10:22;3.10;;;2.47;;
7707;SDS011;3896;48.758;8.888;2023-05-29T15:12:51;7.63;;;2.67;;
7707;SDS011;3896;48.758;8.888;2023-05-29T15:15:22;3.08;;;2.45;;
7707;SDS011;3896;48.758;8.888;2023-05-29T15:17:49;4.20;;;2.90;;
7707;SDS011;3896;48.758;8.888;2023-05-29T15:20:18;3.42;;;2.70;;
7707;SDS011;3896;48.758;8.888;2023-05-29T15:22:45;2.10;;;2.00;;
7707;SDS011;3896;48.758;8.888;2023-05-29T15:25:12;3.15;;;2.85;;
7707;SDS011;3896;48.758;8.888;2023-05-29T15:27:37;3.88;;;2.80;;
7707;SDS011;3896;48.758;8.888;2023-05-29T15:30:13;2.65;;;2.45;;